Time;durP1;ratioP1;P1;durP2;ratioP2;P2;SDS_P1;SDS_P2;PMS_P1;PMS_P2;Temp;Humidity;BMP_temperature;BMP_pressure;BME280_temperature;BME280_humidity;BME280_pressure;Samples;Min_cycle;Max_cycle;Signal;HPM_P1;HPM_P2
2021/07/10 00:00:07;;;;;;;18.92;10.08;;;;;;;20.47;74.15;101041.73;1798774;80;21205;-59
2021/07/10 00:03:13;;;;;;;18.30;9.13;;;;;;;20.46;74.12;101044.20;1810050;79;21279;-58
2021/07/10 00:06:19;;;;;;;20.45;10.05;;;;;;;20.41;74.13;101038.98;1799430;79;21219;-57
2021/07/10 00:09:26;;;;;;;19.77;10.25;;;;;;;20.35;74.28;101038.50;1799095;79;21335;-57
2021/07/10 00:12:32;;;;;;;22.37;9.78;;;;;;;20.29;74.35;101032.44;1799483;79;21213;-57
2021/07/10 00:15:38;;;;;;;21.02;10.72;;;;;;;20.26;74.57;101030.11;1799198;79;21696;-57
2021/07/10 00:18:46;;;;;;;18.55;8.95;;;;;;;20.23;74.62;101038.91;1798196;79;21334;-57
2021/07/10 00:21:53;;;;;;;20.20;9.73;;;;;;;20.17;74.75;101042.02;1798763;79;21331;-57
2021/07/10 00:24:57;;;;;;;16.60;8.98;;;;;;;20.12;75.01;101045.13;1799040;79;21177;-57
2021/07/10 00:28:07;;;;;;;17.65;9.28;;;;;;;20.08;75.12;101038.30;1800411;79;21580;-57
2021/07/10 00:31:11;;;;;;;15.93;8.98;;;;;;;20.01;75.33;101026.38;1810879;79;21231;-57
2021/07/10 00:34:19;;;;;;;18.12;9.03;;;;;;;19.99;75.58;101027.13;1798831;80;21339;-56
2021/07/10 00:37:23;;;;;;;15.55;8.83;;;;;;;19.93;75.73;101021.06;1798793;78;21235;-56
2021/07/10 00:40:31;;;;;;;15.43;8.35;;;;;;;19.91;76.03;101025.45;1798858;79;21224;-56
2021/07/10 00:43:36;;;;;;;14.35;8.03;;;;;;;19.89;75.97;101025.34;1779433;80;21406;-55
2021/07/10 00:46:42;;;;;;;13.08;7.50;;;;;;;19.90;75.93;101021.52;1798807;78;21216;-56
2021/07/10 00:49:49;;;;;;;13.80;7.47;;;;;;;19.92;75.99;101013.25;1798629;80;21217;-56
2021/07/10 00:52:54;;;;;;;14.63;8.03;;;;;;;19.95;75.93;101011.41;1810798;79;21594;-56
2021/07/10 00:56:00;;;;;;;12.50;7.37;;;;;;;20.00;75.86;101026.03;1810845;78;21228;-56
2021/07/10 00:59:06;;;;;;;14.90;7.53;;;;;;;20.00;75.27;101019.09;1810754;79;21199;-57
2021/07/10 01:02:12;;;;;;;12.55;7.37;;;;;;;19.97;74.83;101019.53;1810760;79;21391;-59
2021/07/10 01:05:20;;;;;;;16.57;7.30;;;;;;;19.95;74.67;101017.50;1810799;79;21207;-57
2021/07/10 01:08:25;;;;;;;13.65;7.65;;;;;;;19.95;74.30;101021.67;1798675;80;21354;-57
2021/07/10 01:11:33;;;;;;;12.65;7.47;;;;;;;19.95;74.21;101018.89;1798805;80;21307;-57
2021/07/10 01:14:40;;;;;;;12.05;7.25;;;;;;;19.97;73.97;101019.01;1798828;80;21370;-57
2021/07/10 01:17:46;;;;;;;10.32;6.40;;;;;;;19.95;73.76;101018.89;1810792;79;21212;-57
2021/07/10 01:20:59;;;;;;;12.70;6.97;;;;;;;19.97;73.56;101018.14;1804727;78;21220;-56
2021/07/10 01:24:04;;;;;;;11.83;7.67;;;;;;;19.97;73.12;101013.97;1799058;79;21216;-57
2021/07/10 01:27:10;;;;;;;11.25;7.30;;;;;;;19.93;72.86;101021.06;1798926;78;21741;-57
2021/07/10 01:30:18;;;;;;;9.85;7.33;;;;;;;19.90;72.64;101018.17;1799420;79;21343;-57
2021/07/10 01:33:25;;;;;;;8.53;6.62;;;;;;;19.89;72.60;101016.48;1782172;80;21192;-57
2021/07/10 01:36:32;;;;;;;11.30;7.15;;;;;;;19.90;72.25;101022.90;1798873;79;21659;-58
2021/07/10 01:39:37;;;;;;;10.78;7.15;;;;;;;19.88;72.16;101013.92;1799251;79;21338;-57
2021/07/10 01:42:42;;;;;;;10.72;6.45;;;;;;;19.86;72.06;101013.28;1798702;79;21359;-57
2021/07/10 01:45:48;;;;;;;10.35;6.35;;;;;;;19.87;72.00;101016.39;1798907;79;21217;-57
2021/07/10 01:48:53;;;;;;;13.43;7.40;;;;;;;19.86;71.87;101011.89;1798998;78;21351;-57
2021/07/10 01:51:58;;;;;;;11.93;6.87;;;;;;;19.83;71.95;101005.39;1799449;79;21591;-56
2021/07/10 01:55:03;;;;;;;11.40;7.10;;;;;;;19.85;72.02;101012.98;1798776;80;21359;-57
2021/07/10 01:58:09;;;;;;;12.78;7.33;;;;;;;19.89;71.77;101010.06;1799221;78;21383;-56
2021/07/10 02:01:17;;;;;;;13.50;7.58;;;;;;;19.88;71.53;101013.92;1798800;80;21192;-56
2021/07/10 02:04:25;;;;;;;12.40;8.08;;;;;;;19.88;71.51;101015.31;1799043;79;21256;-57
2021/07/10 02:07:30;;;;;;;14.93;7.70;;;;;;;19.88;71.57;101009.23;1798917;78;21217;-57
2021/07/10 02:10:39;;;;;;;12.33;8.15;;;;;;;19.96;71.54;101013.14;1798882;79;21352;-57
2021/07/10 02:13:45;;;;;;;12.00;7.78;;;;;;;20.04;71.34;101014.25;1798578;80;21355;-56
2021/07/10 02:16:51;;;;;;;13.72;7.70;;;;;;;20.12;71.13;101015.38;1799393;79;21264;-57
2021/07/10 02:19:56;;;;;;;15.95;8.78;;;;;;;20.19;70.86;101017.63;1798745;79;21273;-57
2021/07/10 02:23:04;;;;;;;10.98;7.50;;;;;;;20.22;70.72;101018.57;1798558;78;21685;-56
2021/07/10 02:26:09;;;;;;;12.33;7.20;;;;;;;20.26;70.87;101018.45;1798873;79;21339;-56
2021/07/10 02:29:15;;;;;;;13.05;7.05;;;;;;;20.33;70.82;101013.69;1799626;79;21208;-56
2021/07/10 02:32:20;;;;;;;12.45;7.42;;;;;;;20.39;70.33;101014.17;1799146;78;21394;-56
2021/07/10 02:35:27;;;;;;;15.65;7.53;;;;;;;20.40;70.01;101010.87;1798642;79;21188;-57
2021/07/10 02:38:32;;;;;;;15.70;7.30;;;;;;;20.46;69.74;101014.14;1798812;79;21772;-57
2021/07/10 02:41:39;;;;;;;8.88;6.17;;;;;;;20.48;69.32;101005.03;1798523;79;21730;-57
2021/07/10 02:44:44;;;;;;;12.75;7.60;;;;;;;20.50;69.05;101009.28;1798850;79;21894;-58
2021/07/10 02:47:50;;;;;;;13.10;6.97;;;;;;;20.53;68.97;101006.61;1798452;79;21835;-57
2021/07/10 02:50:56;;;;;;;11.90;7.20;;;;;;;20.62;68.81;101008.02;1799032;79;21193;-57
2021/07/10 02:54:01;;;;;;;10.60;6.50;;;;;;;20.67;68.61;101004.03;1799126;79;21320;-57
2021/07/10 02:57:08;;;;;;;12.75;6.95;;;;;;;20.73;68.30;101010.08;1799280;79;21220;-57
2021/07/10 03:00:21;;;;;;;13.38;7.28;;;;;;;20.81;68.16;101011.19;1798878;79;21193;-57
2021/07/10 03:03:27;;;;;;;9.35;7.00;;;;;;;20.86;67.75;101009.97;1799592;79;21295;-56
2021/07/10 03:06:34;;;;;;;13.72;6.45;;;;;;;20.92;67.71;101009.05;1799301;79;21256;-56
2021/07/10 03:09:40;;;;;;;11.63;6.50;;;;;;;20.96;67.46;100996.93;1799390;79;21288;-57
2021/07/10 03:12:46;;;;;;;8.78;5.75;;;;;;;21.01;67.31;101001.31;1799166;79;21184;-57
2021/07/10 03:15:51;;;;;;;10.48;6.65;;;;;;;21.05;66.92;101003.94;1799845;79;21319;-59
2021/07/10 03:18:58;;;;;;;9.50;6.25;;;;;;;21.04;66.96;100998.89;1799128;79;21169;-58
2021/07/10 03:22:04;;;;;;;15.32;6.80;;;;;;;21.05;67.21;100997.83;1798578;79;21236;-57
2021/07/10 03:25:14;;;;;;;8.95;6.17;;;;;;;21.12;67.29;100999.17;1810489;79;21775;-57
2021/07/10 03:28:20;;;;;;;10.65;6.17;;;;;;;21.23;67.26;100995.63;1811050;78;21235;-58
2021/07/10 03:31:27;;;;;;;9.53;6.87;;;;;;;21.31;67.04;100993.93;1798910;79;21591;-57
2021/07/10 03:34:32;;;;;;;11.18;7.42;;;;;;;21.45;66.94;101002.45;1810318;79;21194;-58
2021/07/10 03:37:37;;;;;;;11.10;7.15;;;;;;;21.49;66.45;100985.03;1794121;79;21256;-59
2021/07/10 03:40:44;;;;;;;15.28;7.30;;;;;;;21.52;66.26;100992.06;1761576;79;21189;-57
2021/07/10 03:43:53;;;;;;;15.85;7.37;;;;;;;21.57;66.47;100997.27;1792923;80;21205;-57
2021/07/10 03:47:00;;;;;;;13.22;7.47;;;;;;;21.60;66.06;100996.80;1793550;80;21335;-57
2021/07/10 03:50:05;;;;;;;9.23;6.90;;;;;;;21.58;65.91;100990.59;1793478;80;21181;-57
2021/07/10 03:53:12;;;;;;;10.98;6.80;;;;;;;21.58;65.85;100993.37;1793459;80;21244;-57
2021/07/10 03:56:19;;;;;;;11.22;7.45;;;;;;;21.66;65.69;100995.03;1792967;80;21821;-58
2021/07/10 03:59:26;;;;;;;8.95;6.45;;;;;;;21.75;65.56;101001.98;1793073;80;21154;-58
2021/07/10 04:02:31;;;;;;;12.13;7.30;;;;;;;21.86;65.50;100999.83;1793455;80;21406;-57
2021/07/10 04:05:38;;;;;;;11.08;7.55;;;;;;;21.97;65.40;101001.30;1793453;80;21904;-59
2021/07/10 04:08:45;;;;;;;12.23;7.17;;;;;;;22.09;65.33;100999.40;1793405;80;21221;-58
2021/07/10 04:11:52;;;;;;;9.50;7.35;;;;;;;22.25;65.49;100990.08;1793395;80;21239;-59
2021/07/10 04:15:03;;;;;;;11.22;7.60;;;;;;;22.41;65.18;100989.37;1793469;80;21154;-59
2021/07/10 04:18:09;;;;;;;9.93;7.00;;;;;;;22.54;64.76;100987.81;1800482;79;21165;-58
2021/07/10 04:21:14;;;;;;;10.28;7.53;;;;;;;22.66;64.60;100982.55;1804975;79;21362;-59
2021/07/10 04:24:22;;;;;;;10.58;7.90;;;;;;;22.82;65.14;100989.37;1768715;79;21209;-58
2021/07/10 04:27:28;;;;;;;11.35;7.78;;;;;;;22.97;64.68;100982.78;1805355;79;21351;-58
2021/07/10 04:30:33;;;;;;;8.18;6.90;;;;;;;23.07;64.39;100983.04;1805577;79;21374;-58
2021/07/10 04:33:39;;;;;;;10.78;7.92;;;;;;;23.15;64.08;100985.47;1805330;79;21339;-58
2021/07/10 04:36:46;;;;;;;11.70;7.95;;;;;;;23.22;64.18;100982.84;1805623;79;21366;-59
2021/07/10 04:39:52;;;;;;;11.85;7.83;;;;;;;23.32;64.48;100983.13;1805747;79;21217;-58
2021/07/10 04:43:00;;;;;;;14.25;7.42;;;;;;;23.36;63.91;100983.45;1767542;81;21425;-59
2021/07/10 04:46:09;;;;;;;13.68;8.35;;;;;;;23.42;63.61;100983.33;1767526;81;21189;-58
2021/07/10 04:49:14;;;;;;;11.75;8.18;;;;;;;23.47;63.50;100979.80;1804161;79;21196;-59
2021/07/10 04:52:20;;;;;;;13.50;8.03;;;;;;;23.48;63.26;100977.33;1770366;80;21387;-59
2021/07/10 04:55:26;;;;;;;15.15;8.20;;;;;;;23.56;63.52;100977.77;1770918;80;21826;-59
2021/07/10 04:58:32;;;;;;;12.28;8.15;;;;;;;23.70;63.61;100969.13;1767257;80;21430;-60
2021/07/10 05:01:38;;;;;;;15.00;8.83;;;;;;;23.78;63.57;100970.99;1804743;79;21180;-59
2021/07/10 05:04:43;;;;;;;13.53;8.48;;;;;;;23.87;63.83;100972.29;1805633;79;21413;-59
2021/07/10 05:07:48;;;;;;;12.23;8.63;;;;;;;24.03;63.58;100974.34;1767439;81;21379;-57
2021/07/10 05:10:54;;;;;;;15.35;8.25;;;;;;;24.20;63.37;100973.83;1805471;79;21209;-58
2021/07/10 05:14:01;;;;;;;16.15;8.38;;;;;;;24.41;63.12;100968.92;1805658;79;21323;-57
2021/07/10 05:17:06;;;;;;;13.20;8.23;;;;;;;24.62;63.53;100969.59;1805845;79;21614;-58
2021/07/10 05:20:15;;;;;;;11.10;7.65;;;;;;;24.81;62.69;100968.27;1805576;79;21402;-58
2021/07/10 05:23:19;;;;;;;24.47;8.88;;;;;;;25.02;61.47;100967.48;1757908;80;21209;-58
2021/07/10 05:26:26;;;;;;;20.57;8.50;;;;;;;25.26;60.33;100967.30;1776300;79;21255;-58
2021/07/10 05:29:32;;;;;;;12.37;7.45;;;;;;;25.43;59.67;100963.38;1800349;79;21212;-57
2021/07/10 05:32:41;;;;;;;11.63;7.55;;;;;;;25.63;58.58;100967.85;1800444;79;21216;-58
2021/07/10 05:35:48;;;;;;;12.15;8.33;;;;;;;25.79;58.03;100964.69;1800446;79;21212;-58
2021/07/10 05:38:55;;;;;;;13.55;7.17;;;;;;;25.92;57.60;100961.48;1800580;79;21634;-57
2021/07/10 05:42:01;;;;;;;13.28;7.30;;;;;;;26.05;56.95;100949.89;1783589;79;21852;-57
2021/07/10 05:45:06;;;;;;;11.22;7.28;;;;;;;26.13;56.44;100946.04;1781466;79;21338;-57
2021/07/10 05:48:13;;;;;;;12.33;6.70;;;;;;;26.23;56.43;100955.13;1780399;80;21326;-57
2021/07/10 05:51:18;;;;;;;11.08;7.00;;;;;;;26.32;56.19;100954.39;1783195;79;21367;-59
2021/07/10 05:54:24;;;;;;;9.98;7.12;;;;;;;26.40;54.88;100947.47;1781732;79;21338;-57
2021/07/10 05:57:29;;;;;;;9.45;6.80;;;;;;;26.45;54.44;100952.56;1780941;80;21342;-58
2021/07/10 06:00:40;;;;;;;12.03;7.17;;;;;;;26.56;54.63;100947.88;1800430;79;21204;-58
2021/07/10 06:03:48;;;;;;;13.88;6.85;;;;;;;26.67;54.64;100945.48;1800523;79;21628;-58
2021/07/10 06:06:56;;;;;;;10.03;6.72;;;;;;;26.79;54.58;100941.95;1800483;79;21768;-59
2021/07/10 06:10:03;;;;;;;8.00;5.90;;;;;;;26.88;54.34;100948.75;1800627;79;21696;-59
2021/07/10 06:13:13;;;;;;;7.80;5.03;;;;;;;26.99;53.96;100945.48;1800661;79;21255;-59
2021/07/10 06:16:17;;;;;;;7.83;5.33;;;;;;;27.08;53.61;100939.64;1800503;79;21192;-59
2021/07/10 06:19:23;;;;;;;10.28;5.17;;;;;;;27.16;53.03;100937.14;1800673;79;21327;-58
2021/07/10 06:22:29;;;;;;;9.50;5.00;;;;;;;27.24;51.98;100942.84;1800636;79;21193;-58
2021/07/10 06:25:34;;;;;;;8.53;5.28;;;;;;;27.33;51.07;100944.91;1803399;79;21343;-58
2021/07/10 06:28:41;;;;;;;10.23;5.20;;;;;;;27.41;49.90;100939.31;1794740;79;21209;-59
2021/07/10 06:31:46;;;;;;;9.05;5.15;;;;;;;27.47;49.83;100942.43;1794949;79;21795;-58
2021/07/10 06:34:52;;;;;;;10.82;5.80;;;;;;;27.52;49.73;100941.91;1794552;79;21189;-58
2021/07/10 06:37:58;;;;;;;11.50;5.40;;;;;;;27.62;48.76;100941.12;1794939;79;21251;-57
2021/07/10 06:41:04;;;;;;;10.98;5.15;;;;;;;27.68;49.01;100940.88;1794421;80;21244;-57
2021/07/10 06:44:10;;;;;;;7.97;4.60;;;;;;;27.75;48.10;100931.59;1794736;80;21165;-58
2021/07/10 06:47:18;;;;;;;12.43;4.85;;;;;;;27.85;47.32;100940.64;1778232;79;21351;-57
2021/07/10 06:50:28;;;;;;;9.48;5.15;;;;;;;27.92;47.07;100934.78;1794635;79;21196;-59
2021/07/10 06:53:33;;;;;;;9.93;5.03;;;;;;;28.00;47.61;100939.88;1794115;80;21573;-58
2021/07/10 06:56:39;;;;;;;8.83;4.92;;;;;;;28.04;47.71;100932.01;1794223;79;21197;-57
2021/07/10 06:59:45;;;;;;;8.35;5.70;;;;;;;28.11;47.43;100938.78;1794425;79;21268;-58
2021/07/10 07:02:52;;;;;;;10.08;5.75;;;;;;;28.17;46.68;100941.89;1782686;80;21745;-60
2021/07/10 07:05:57;;;;;;;8.95;5.08;;;;;;;28.26;47.84;100937.43;1783087;80;21256;-60
2021/07/10 07:09:03;;;;;;;6.65;4.85;;;;;;;28.34;47.55;100931.22;1794392;78;21204;-58
2021/07/10 07:12:10;;;;;;;7.05;5.33;;;;;;;28.41;48.10;100927.58;1763059;81;21370;-58
2021/07/10 07:15:19;;;;;;;8.18;5.08;;;;;;;28.47;47.22;100932.09;1763209;81;21551;-58
2021/07/10 07:18:24;;;;;;;10.95;5.30;;;;;;;28.51;46.81;100924.23;1763352;81;21351;-59
2021/07/10 07:21:32;;;;;;;10.53;5.45;;;;;;;28.58;47.19;100916.36;1764088;81;21216;-59
2021/07/10 07:24:37;;;;;;;9.55;5.40;;;;;;;28.66;47.48;100921.98;1795838;79;21364;-58
2021/07/10 07:27:45;;;;;;;6.22;4.70;;;;;;;28.71;46.18;100914.95;1799701;79;21343;-59
2021/07/10 07:30:50;;;;;;;8.50;5.00;;;;;;;28.77;45.86;100916.62;1806553;79;21393;-58
2021/07/10 07:33:57;;;;;;;14.13;5.25;;;;;;;28.82;46.38;100916.63;1808764;79;21371;-59
2021/07/10 07:37:06;;;;;;;10.13;4.85;;;;;;;28.87;46.12;100916.63;1808960;79;22168;-57
2021/07/10 07:40:16;;;;;;;8.73;5.10;;;;;;;28.93;44.53;100918.31;1809177;79;21227;-57
2021/07/10 07:43:23;;;;;;;8.05;4.92;;;;;;;28.95;43.92;100914.66;1808822;79;21228;-57
2021/07/10 07:46:31;;;;;;;7.85;4.58;;;;;;;29.01;44.31;100912.10;1797868;79;21366;-60
2021/07/10 07:49:36;;;;;;;7.37;4.60;;;;;;;29.05;42.45;100907.59;1765433;80;21207;-57
2021/07/10 07:52:45;;;;;;;11.53;5.05;;;;;;;29.03;42.07;100909.27;1765659;80;21216;-56
2021/07/10 07:55:55;;;;;;;8.08;4.80;;;;;;;29.08;42.24;100921.16;1766803;80;21208;-59
2021/07/10 07:59:05;;;;;;;8.03;4.60;;;;;;;29.13;43.08;100915.48;1766244;80;21169;-58
2021/07/10 08:02:11;;;;;;;6.90;4.72;;;;;;;29.18;42.24;100914.92;1765818;80;21871;-57
2021/07/10 08:05:17;;;;;;;6.85;4.80;;;;;;;29.23;42.05;100916.88;1765819;80;21259;-57
2021/07/10 08:08:22;;;;;;;4.70;4.05;;;;;;;29.29;42.76;100922.78;1750035;81;21260;-57
2021/07/10 08:11:30;;;;;;;15.13;5.10;;;;;;;29.36;42.57;100919.66;1765728;80;21701;-57
2021/07/10 08:14:38;;;;;;;8.45;4.90;;;;;;;29.43;41.86;100923.05;1765785;80;21185;-56
2021/07/10 08:17:43;;;;;;;8.33;5.10;;;;;;;29.52;41.35;100926.95;1765851;80;21283;-57
2021/07/10 08:20:49;;;;;;;7.37;4.60;;;;;;;29.56;39.35;100923.27;1781846;79;21780;-56
2021/07/10 08:23:55;;;;;;;6.05;4.62;;;;;;;29.62;40.31;100920.70;1778330;79;21252;-58
2021/07/10 08:27:06;;;;;;;7.47;4.90;;;;;;;29.71;40.32;100921.84;1783295;79;21347;-58
2021/07/10 08:30:16;;;;;;;7.37;4.90;;;;;;;29.76;41.01;100920.41;1777338;79;21196;-57
2021/07/10 08:33:22;;;;;;;7.55;5.42;;;;;;;29.75;40.60;100918.70;1760356;80;21744;-58
2021/07/10 08:36:29;;;;;;;32.80;6.33;;;;;;;29.74;39.60;100917.59;1788699;79;21158;-57
2021/07/10 08:39:34;;;;;;;8.60;4.80;;;;;;;29.74;37.31;100917.03;1781231;79;21421;-57
2021/07/10 08:42:40;;;;;;;5.75;4.97;;;;;;;29.73;39.18;100911.67;1771831;80;21371;-56
2021/07/10 08:45:47;;;;;;;8.83;4.80;;;;;;;29.80;39.83;100915.86;1752820;81;21351;-57
2021/07/10 08:48:54;;;;;;;11.03;4.78;;;;;;;29.92;39.67;100909.88;1760051;81;21883;-57
2021/07/10 08:52:01;;;;;;;7.87;6.10;;;;;;;30.03;39.87;100901.63;1760211;81;21811;-59
2021/07/10 08:55:06;;;;;;;7.12;4.65;;;;;;;30.14;38.48;100899.02;1758351;81;21352;-58
2021/07/10 08:58:12;;;;;;;9.23;4.78;;;;;;;30.19;38.26;100899.81;1728659;83;21225;-60
2021/07/10 09:01:16;;;;;;;8.40;5.53;;;;;;;30.30;37.97;100900.64;1729340;83;21403;-57
2021/07/10 09:04:23;;;;;;;6.55;5.20;;;;;;;30.30;37.97;100900.64;1729399;82;21216;-57
2021/07/10 09:07:31;;;;;;;10.15;4.90;;;;;;;30.34;36.67;100894.66;1728952;82;21268;-58
2021/07/10 09:10:42;;;;;;;8.53;4.85;;;;;;;30.41;37.69;100896.01;1729845;82;21224;-58
2021/07/10 09:13:52;;;;;;;7.70;5.17;;;;;;;30.50;37.64;100887.20;1729312;82;21225;-58
2021/07/10 09:16:58;;;;;;;8.63;5.33;;;;;;;30.58;37.74;100892.78;1729446;82;21606;-57
2021/07/10 09:20:04;;;;;;;9.78;5.08;;;;;;;30.64;37.08;100886.80;1729061;82;21201;-59
2021/07/10 09:23:39;;;;;;;7.55;5.80;;;;;;;30.78;36.76;100883.32;1714169;83;21244;-59
2021/07/10 09:26:41;;;;;;;9.50;5.90;;;;;;;30.78;36.76;100883.32;1729157;83;21190;-58
2021/07/10 09:29:51;;;;;;;10.43;5.85;;;;;;;30.68;35.35;100887.05;1712724;80;21197;-59
2021/07/10 09:33:00;;;;;;;7.95;5.67;;;;;;;30.60;35.53;100885.68;1737934;82;21772;-59
2021/07/10 09:36:08;;;;;;;8.05;5.20;;;;;;;30.68;36.50;100888.47;1757457;79;21198;-58
2021/07/10 09:39:17;;;;;;;8.48;5.10;;;;;;;30.86;37.04;100885.51;1791259;79;21169;-58
2021/07/10 09:42:24;;;;;;;9.70;6.00;;;;;;;31.01;36.18;100883.92;1794713;79;21678;-59
2021/07/10 09:45:30;;;;;;;10.05;5.40;;;;;;;31.19;36.41;100877.52;1780766;79;21867;-59
2021/07/10 09:48:37;;;;;;;10.20;5.62;;;;;;;31.36;36.46;100882.16;1783447;79;21181;-58
2021/07/10 09:51:44;;;;;;;8.60;5.20;;;;;;;31.48;36.68;100882.56;1805719;79;21236;-58
2021/07/10 09:54:54;;;;;;;10.25;5.20;;;;;;;31.57;37.44;100873.09;1791764;79;21191;-58
2021/07/10 09:58:03;;;;;;;8.80;5.95;;;;;;;31.65;36.55;100876.67;1789116;79;21322;-58
2021/07/10 10:01:32;;;;;;;6.80;5.55;;;;;;;31.43;35.21;100873.56;1754652;80;21319;-58
2021/07/10 10:04:38;;;;;;;7.08;5.22;;;;;;;31.16;35.83;100877.53;1780697;79;21165;-59
2021/07/10 10:07:59;;;;;;;7.20;5.40;;;;;;;31.02;36.38;100865.80;1805214;79;21988;-58
2021/07/10 10:11:04;;;;;;;8.98;5.70;;;;;;;31.08;36.84;100873.94;1807965;79;21687;-59
2021/07/10 10:14:18;;;;;;;9.53;5.45;;;;;;;31.16;36.90;100874.70;1808449;79;21824;-60
2021/07/10 10:17:28;;;;;;;7.85;4.97;;;;;;;31.14;35.62;100874.18;1809580;79;21841;-59
2021/07/10 10:20:36;;;;;;;;;;;;;;;30.96;34.59;100862.20;1811420;79;21236;-56
2021/07/10 10:23:44;;;;;;;26.48;16.93;;;;;;;30.82;33.87;100858.39;1806311;79;20209;-57
2021/07/10 10:26:51;;;;;;;14.65;11.20;;;;;;;30.77;34.52;100857.58;1808987;79;21327;-58
2021/07/10 10:30:00;;;;;;;14.53;8.45;;;;;;;30.96;34.12;100853.71;1805122;79;21259;-58
2021/07/10 10:33:06;;;;;;;6.62;5.45;;;;;;;30.96;34.12;100853.71;1790593;79;21662;-58
2021/07/10 10:36:13;;;;;;;7.20;5.40;;;;;;;31.15;34.00;100848.12;1786201;79;21397;-58
2021/07/10 10:39:26;;;;;;;8.03;5.10;;;;;;;31.37;33.39;100842.23;1782819;79;21334;-58
2021/07/10 10:42:33;;;;;;;7.97;5.15;;;;;;;31.56;34.41;100847.36;1780558;79;21461;-58
2021/07/10 10:45:42;;;;;;;10.40;5.20;;;;;;;31.73;33.71;100849.70;1788681;79;21579;-57
2021/07/10 10:48:51;;;;;;;5.50;4.22;;;;;;;31.68;33.80;100840.67;1783088;79;21732;-57
2021/07/10 10:51:56;;;;;;;7.35;4.58;;;;;;;31.74;34.60;100846.56;1787150;79;21689;-57
2021/07/10 10:55:04;;;;;;;8.63;5.15;;;;;;;31.91;33.92;100846.91;1768561;79;21248;-57
2021/07/10 10:58:19;;;;;;;16.27;4.87;;;;;;;32.07;34.37;100846.66;1792911;79;21227;-56
2021/07/10 11:01:27;;;;;;;5.95;4.00;;;;;;;32.16;32.98;100833.50;1797593;80;21165;-57
2021/07/10 11:04:57;;;;;;;6.42;4.10;;;;;;;32.19;32.89;100836.53;1736800;80;21231;-57
2021/07/10 11:08:29;;;;;;;11.08;4.45;;;;;;;32.16;32.81;100830.08;1810239;79;21161;-57
2021/07/10 11:11:39;;;;;;;7.45;4.53;;;;;;;32.25;32.96;100825.41;1798597;79;21170;-59
2021/07/10 11:14:44;;;;;;;8.43;4.40;;;;;;;32.44;33.38;100827.67;1810654;79;21372;-60
2021/07/10 11:17:51;;;;;;;6.12;4.55;;;;;;;32.65;33.24;100834.65;1794891;79;21178;-58
2021/07/10 11:20:58;;;;;;;11.70;4.40;;;;;;;32.80;33.10;100831.55;1763388;79;21782;-57
2021/07/10 11:24:28;;;;;;;7.55;4.60;;;;;;;32.82;32.55;100826.41;1810828;79;21165;-58
2021/07/10 11:27:35;;;;;;;9.75;4.30;;;;;;;32.78;32.36;100825.34;1798362;80;21189;-58
2021/07/10 11:30:49;;;;;;;10.00;4.60;;;;;;;32.60;33.07;100821.97;1741183;82;21797;-58
2021/07/10 11:34:13;;;;;;;11.35;4.15;;;;;;;32.60;34.39;100816.30;1766709;79;21243;-58
2021/07/10 11:37:28;;;;;;;6.50;4.25;;;;;;;32.72;33.45;100822.34;1777659;78;21405;-58
2021/07/10 11:40:48;;;;;;;9.28;4.42;;;;;;;32.76;32.76;100822.56;1771345;80;21199;-58
2021/07/10 11:43:54;;;;;;;5.87;3.72;;;;;;;32.76;32.44;100812.03;1763812;81;21446;-57
2021/07/10 11:47:12;;;;;;;9.58;4.37;;;;;;;32.83;32.07;100807.38;1771411;80;21232;-57
2021/07/10 11:50:27;;;;;;;6.87;4.03;;;;;;;32.90;32.36;100807.28;1763841;81;21378;-57
2021/07/10 11:53:35;;;;;;;6.45;3.90;;;;;;;33.02;31.90;100797.67;1771450;80;21227;-58
2021/07/10 11:56:42;;;;;;;9.53;4.30;;;;;;;33.12;32.11;100797.47;1763211;81;21284;-58
2021/07/10 11:59:49;;;;;;;7.28;3.72;;;;;;;33.15;32.92;100796.84;1763673;80;21418;-58
2021/07/10 12:02:57;;;;;;;7.28;3.62;;;;;;;33.03;33.31;100791.42;1771155;80;21220;-56
2021/07/10 12:06:06;;;;;;;6.58;4.35;;;;;;;33.01;34.21;100800.25;1763640;81;21244;-56
2021/07/10 12:09:12;;;;;;;9.35;4.33;;;;;;;32.97;33.76;100797.77;1763487;80;21331;-60
2021/07/10 12:12:22;;;;;;;10.95;4.12;;;;;;;32.98;33.03;100800.86;1775834;80;21216;-57
2021/07/10 12:15:37;;;;;;;5.60;3.92;;;;;;;32.83;32.02;100805.39;1750139;81;21331;-57
2021/07/10 12:18:43;;;;;;;13.18;4.53;;;;;;;32.74;32.54;100796.50;1775265;81;21278;-58
2021/07/10 12:21:50;;;;;;;6.60;4.37;;;;;;;32.74;32.78;100795.08;1721799;81;21184;-57
2021/07/10 12:24:56;;;;;;;6.42;3.98;;;;;;;32.61;32.46;100787.38;1784376;80;21196;-56
2021/07/10 12:28:09;;;;;;;7.42;3.87;;;;;;;32.52;33.12;100785.00;1783807;79;21249;-58
2021/07/10 12:31:33;;;;;;;8.20;3.80;;;;;;;32.52;32.87;100781.60;1783216;80;21204;-57
2021/07/10 12:34:39;;;;;;;4.97;4.00;;;;;;;32.57;32.79;100784.91;1803357;79;21252;-56
2021/07/10 12:37:45;;;;;;;7.50;3.87;;;;;;;32.46;32.23;100779.16;1810837;79;21184;-56
2021/07/10 12:40:49;;;;;;;7.65;4.30;;;;;;;32.40;32.79;100773.30;1811357;79;21336;-57
2021/07/10 12:43:55;;;;;;;6.55;4.10;;;;;;;32.40;33.36;100769.89;1811215;79;21902;-58
2021/07/10 12:47:17;;;;;;;4.75;3.52;;;;;;;32.38;32.32;100775.63;1811423;79;21800;-57
2021/07/10 12:50:23;;;;;;;6.60;4.50;;;;;;;32.29;32.07;100772.61;1813721;79;21465;-57
2021/07/10 12:53:37;;;;;;;7.95;3.42;;;;;;;32.25;33.40;100767.88;1816510;79;21359;-57
2021/07/10 12:56:43;;;;;;;8.18;3.87;;;;;;;32.30;32.73;100775.70;1816618;79;21385;-58
2021/07/10 13:00:04;;;;;;;25.08;5.30;;;;;;;32.24;32.77;100771.28;1816608;79;21342;-57
2021/07/10 13:03:21;;;;;;;7.92;3.95;;;;;;;32.23;32.80;100768.75;1815386;79;21401;-57
2021/07/10 13:06:28;;;;;;;7.55;4.12;;;;;;;32.17;32.19;100765.18;1815908;79;21224;-57
2021/07/10 13:09:45;;;;;;;4.97;3.72;;;;;;;32.19;32.32;100770.54;1784349;80;21215;-56
2021/07/10 13:12:55;;;;;;;6.47;3.70;;;;;;;32.22;32.78;100764.25;1804215;79;21192;-57
2021/07/10 13:16:04;;;;;;;8.70;4.30;;;;;;;32.27;31.99;100764.98;1815233;79;21172;-57
2021/07/10 13:19:13;;;;;;;8.30;4.20;;;;;;;32.24;31.83;100763.38;1809313;79;21200;-57
2021/07/10 13:22:20;;;;;;;5.40;3.72;;;;;;;32.23;32.13;100757.41;1809952;79;21169;-57
2021/07/10 13:25:30;;;;;;;6.45;3.67;;;;;;;32.24;31.39;100757.70;1810792;79;21315;-57
2021/07/10 13:28:43;;;;;;;4.00;3.55;;;;;;;32.15;31.53;100746.22;1810435;79;21374;-58
2021/07/10 13:32:01;;;;;;;7.25;4.20;;;;;;;32.03;31.70;100749.53;1810579;79;21361;-57
2021/07/10 13:35:06;;;;;;;8.38;3.85;;;;;;;32.02;32.05;100747.00;1811446;79;21345;-57
2021/07/10 13:38:21;;;;;;;5.17;3.80;;;;;;;32.04;32.16;100737.63;1789238;79;21748;-58
2021/07/10 13:41:31;;;;;;;4.47;3.45;;;;;;;32.02;32.74;100737.09;1785065;79;21720;-58
2021/07/10 13:44:56;;;;;;;5.72;3.50;;;;;;;32.05;32.57;100740.72;1808565;79;21208;-58
2021/07/10 13:48:20;;;;;;;6.33;3.55;;;;;;;32.08;31.82;100731.59;1812211;79;21200;-56
2021/07/10 13:51:32;;;;;;;12.58;3.87;;;;;;;32.07;32.48;100727.09;1813105;79;21377;-57
2021/07/10 13:55:01;;;;;;;4.20;3.27;;;;;;;32.13;33.37;100723.02;1813000;79;21855;-57
2021/07/10 13:58:09;;;;;;;7.67;3.87;;;;;;;32.23;32.93;100727.09;1813173;79;21378;-56
2021/07/10 14:01:15;;;;;;;5.75;3.37;;;;;;;32.33;33.30;100715.58;1794638;78;21887;-56
2021/07/10 14:04:23;;;;;;;6.35;3.30;;;;;;;32.42;32.83;100713.73;1813233;79;21338;-58
2021/07/10 14:07:29;;;;;;;7.37;3.75;;;;;;;32.40;32.83;100710.36;1813100;79;21385;-58
2021/07/10 14:10:39;;;;;;;6.72;3.45;;;;;;;32.40;33.31;100713.20;1812795;79;21319;-58
2021/07/10 14:13:46;;;;;;;7.60;3.75;;;;;;;32.40;32.33;100706.67;1812712;79;21240;-57
2021/07/10 14:16:51;;;;;;;8.13;3.50;;;;;;;32.37;32.44;100708.72;1812888;79;21808;-57
2021/07/10 14:19:57;;;;;;;6.15;3.70;;;;;;;32.35;32.84;100710.42;1812745;79;21728;-57
2021/07/10 14:23:03;;;;;;;6.00;3.35;;;;;;;32.35;32.89;100713.25;1803666;79;21208;-57
2021/07/10 14:26:09;;;;;;;6.15;3.27;;;;;;;32.29;32.15;100701.75;1805556;79;21228;-57
2021/07/10 14:29:15;;;;;;;4.75;3.12;;;;;;;32.18;32.09;100697.42;1808983;79;21725;-58